Denbigh, Canada
Current Conditions -  °F | °C
As of 5:00 PM on Tuesday 21 Oct 2014 (Local Time) from CYWA Reporting Station
Overcast Overcast  
Wind Chill: 42°   Ceiling: 3700
Heat Index: 46°   Visibility: 9mi
Dew Point: 30°   Wind: 8mph
Humidity: 53%   Direction: 360°N
Pressure: 30.11"   Gusts: NA
Location:  45.15°N, 77.25°W
Report Text: CYWA 212100Z AUTO 36007KT 9SM OVC037 08/M01 A3011 RMK SLP202
Loading
Personal Weather Stations






























Interactive Weather Map
Tropical Storm Tracking
New forecast layout! Learn more

10-Day Weather Forecast

Advertisements
Track Severe Weather on mobile